This is the latest recevied weather packets stored in our database for station/object F1AGU-13. If no packets are shown the sender has not sent any weather packets the latest 10 day(s).
| Time | Temp. | Humidity | Pressure | Rain* | Wind** | Luminosity | Snow |
|---|---|---|---|---|---|---|---|
| 1777709717 | 16.11° C | 70% | 1024.3 hPa | 0 mm | - | - | - |
| 1777709117 | 15.56° C | 71% | 1024.3 hPa | 0 mm | - | - | - |
| 1777708517 | 14.44° C | 77% | 1024.3 hPa | 0 mm | - | - | - |
| 1777707917 | 13.33° C | 81% | 1024.2 hPa | 0 mm | - | - | - |
| 1777707320 | 12.22° C | 85% | 1024.1 hPa | 0 mm | - | - | - |
| 1777706717 | 10.56° C | 88% | 1024 hPa | 0 mm | - | - | - |
| 1777706117 | 10° C | 88% | 1023.8 hPa | 0 mm | - | - | - |
| 1777705517 | 10° C | 88% | 1024 hPa | 0 mm | - | - | - |
| 1777704917 | 9.44° C | 89% | 1024 hPa | 0 mm | - | - | - |
| 1777704317 | 8.89° C | 90% | 1023.8 hPa | 0 mm | - | - | - |
| 1777703717 | 8.89° C | 91% | 1024.1 hPa | 0 mm | - | - | - |
| 1777703117 | 8.89° C | 91% | 1024.1 hPa | 0 mm | - | - | - |
| 1777702517 | 8.89° C | 91% | 1024.1 hPa | 0 mm | - | - | - |
| 1777701917 | 8.33° C | 92% | 1024.1 hPa | 0 mm | - | - | - |
| 1777701317 | 8.33° C | 93% | 1024.1 hPa | 0 mm | - | - | - |
| 1777700717 | 8.33° C | 93% | 1024.1 hPa | 0 mm | - | - | - |
| 1777700117 | 8.33° C | 94% | 1024 hPa | 0 mm | - | - | - |
| 1777699517 | 8.33° C | 94% | 1024 hPa | 0 mm | - | - | - |
| 1777698917 | 7.78° C | 95% | 1024 hPa | 0 mm | - | - | - |
| 1777698317 | 7.78° C | 94% | 1023.9 hPa | 0 mm | - | - | - |
| 1777697717 | 8.33° C | 93% | 1023.9 hPa | 0 mm | - | - | - |
| 1777697117 | 8.33° C | 93% | 1024.2 hPa | 0 mm | - | - | - |
| 1777696517 | 8.33° C | 94% | 1024.1 hPa | 0 mm | - | - | - |
| 1777695917 | 8.33° C | 93% | 1024.1 hPa | 0 mm | - | - | - |
| 1777695317 | 8.89° C | 94% | 1024.4 hPa | 0 mm | - | - | - |
* Rain latest hour (hover to see other rain measurements)
** Current wind speed in m/s (hover to see current wind gust speed)